Abbeville, Louisiana
Current Conditions -  °F | °C
As of 4:15 PM on Saturday 20 Dec 2014 (Local Time) from KIYA Reporting Station
Overcast Overcast  
Wind Chill: 46°   Ceiling: 800
Heat Index: 50°   Visibility: 10mi
Dew Point: 47°   Wind: 9mph
Humidity: 92%   Direction: 360°N
Pressure: 30.14"   Gusts: NA
Location:  29.97°N, 92.13°W
Report Text: KIYA 202215Z AUTO 36008KT 10SM OVC008 10/09 A3014 RMK AO2 T00980086 TSNO
Loading
Personal Weather Stations






























Interactive Weather Map New forecast layout! Learn more

10-Day Weather Forecast

Advertisements
Track Severe Weather on mobile